Time;durP1;ratioP1;P1;durP2;ratioP2;P2;SDS_P1;SDS_P2;PMS_P1;PMS_P2;Temp;Humidity;BMP_temperature;BMP_pressure;BME280_temperature;BME280_humidity;BME280_pressure;Samples;Min_cycle;Max_cycle;Signal;HPM_P1;HPM_P2
2021/09/03 00:02:08;;;;;;;10.25;8.15;;;;;;;15.28;100.00;100911.63;5037992;28;20055;-72
2021/09/03 00:04:52;;;;;;;12.02;8.20;;;;;;;15.27;100.00;100907.25;5038491;28;20044;-72
2021/09/03 00:07:36;;;;;;;9.70;8.52;;;;;;;15.27;100.00;100897.34;5038295;28;20047;-73
2021/09/03 00:10:21;;;;;;;11.43;8.38;;;;;;;15.24;100.00;100899.50;5038224;28;20043;-72
2021/09/03 00:13:05;;;;;;;9.85;8.13;;;;;;;15.22;100.00;100894.28;5053547;28;20458;-72
2021/09/03 00:15:49;;;;;;;11.90;8.25;;;;;;;15.20;100.00;100892.78;5038070;28;20431;-72
2021/09/03 00:18:33;;;;;;;12.48;9.48;;;;;;;15.19;100.00;100888.41;5053219;28;20075;-72
2021/09/03 00:21:18;;;;;;;10.98;8.40;;;;;;;15.18;100.00;100894.75;5053145;28;20106;-72
2021/09/03 00:24:02;;;;;;;13.48;8.65;;;;;;;15.17;100.00;100891.25;5037775;28;20122;-72
2021/09/03 00:26:46;;;;;;;12.32;9.15;;;;;;;15.15;100.00;100885.19;5038079;28;20051;-73
2021/09/03 00:29:30;;;;;;;11.07;8.23;;;;;;;15.13;100.00;100875.63;5038007;28;20134;-72
2021/09/03 00:32:14;;;;;;;10.57;8.90;;;;;;;15.11;100.00;100877.63;5037597;28;20048;-72
2021/09/03 00:34:58;;;;;;;11.98;8.93;;;;;;;15.07;100.00;100865.50;5052975;28;20091;-72
2021/09/03 00:37:41;;;;;;;13.45;8.93;;;;;;;15.03;100.00;100864.13;5038161;28;20557;-72
2021/09/03 00:40:25;;;;;;;12.80;8.60;;;;;;;14.98;100.00;100867.28;5037671;28;20086;-72
2021/09/03 00:43:09;;;;;;;13.43;9.20;;;;;;;14.92;100.00;100862.53;5037859;28;20143;-72
2021/09/03 00:45:53;;;;;;;12.23;8.63;;;;;;;14.87;100.00;100866.69;5037831;28;20610;-69
2021/09/03 00:48:37;;;;;;;15.10;8.90;;;;;;;14.87;100.00;100870.25;5023881;28;20506;-72
2021/09/03 00:51:21;;;;;;;10.27;8.30;;;;;;;14.84;100.00;100870.56;5040021;28;20518;-71
2021/09/03 00:54:06;;;;;;;10.77;8.90;;;;;;;14.82;100.00;100867.19;5027333;28;20083;-72
2021/09/03 00:56:50;;;;;;;10.18;8.85;;;;;;;14.81;100.00;100870.03;5056726;28;20071;-72
2021/09/03 00:59:34;;;;;;;11.52;9.52;;;;;;;14.82;100.00;100863.66;5027339;28;20110;-72
2021/09/03 01:02:18;;;;;;;12.60;8.75;;;;;;;14.80;100.00;100858.44;5041554;28;20087;-72
2021/09/03 01:05:03;;;;;;;10.73;8.52;;;;;;;14.75;100.00;100860.75;5041742;28;20044;-72
2021/09/03 01:07:46;;;;;;;11.25;8.55;;;;;;;14.73;100.00;100856.53;5041442;28;20040;-72
2021/09/03 01:10:30;;;;;;;12.35;9.63;;;;;;;14.68;100.00;100864.22;5041101;28;20083;-72
2021/09/03 01:13:14;;;;;;;13.13;8.32;;;;;;;14.63;100.00;100851.28;5027077;28;20055;-72
2021/09/03 01:15:58;;;;;;;11.63;8.23;;;;;;;14.60;100.00;100859.63;5027096;28;20052;-72
2021/09/03 01:18:42;;;;;;;14.50;9.20;;;;;;;14.57;100.00;100859.94;5027260;28;20179;-72
2021/09/03 01:21:27;;;;;;;11.20;8.73;;;;;;;14.56;100.00;100854.72;5040876;28;20115;-72
2021/09/03 01:24:11;;;;;;;12.02;8.88;;;;;;;14.53;100.00;100855.03;5041166;28;20044;-71
2021/09/03 01:26:55;;;;;;;12.25;8.70;;;;;;;14.53;100.00;100860.41;5041087;28;20461;-72
2021/09/03 01:29:39;;;;;;;13.75;8.88;;;;;;;14.53;100.00;100855.03;5027120;28;20119;-72
2021/09/03 01:32:23;;;;;;;13.50;9.35;;;;;;;14.51;100.00;100849.81;5055631;28;20056;-70
2021/09/03 01:35:07;;;;;;;10.30;8.23;;;;;;;14.50;100.00;100844.63;5040765;28;20051;-72
2021/09/03 01:37:51;;;;;;;11.05;8.20;;;;;;;14.46;100.00;100849.44;5027094;28;20040;-72
2021/09/03 01:40:35;;;;;;;11.68;8.38;;;;;;;14.43;100.00;100848.91;5040617;28;20083;-72
2021/09/03 01:43:19;;;;;;;10.00;8.25;;;;;;;14.39;100.00;100843.00;5055598;28;20079;-72
2021/09/03 01:46:06;;;;;;;13.43;8.43;;;;;;;14.36;100.00;100843.31;5040726;28;20051;-72
2021/09/03 01:48:50;;;;;;;10.75;8.35;;;;;;;14.35;100.00;100840.78;5055747;28;20074;-71
2021/09/03 01:51:34;;;;;;;10.23;8.30;;;;;;;14.31;100.00;100836.75;5026270;28;20429;-72
2021/09/03 01:54:18;;;;;;;11.52;8.90;;;;;;;14.28;100.00;100839.75;5026489;28;20060;-72
2021/09/03 01:57:02;;;;;;;11.10;8.48;;;;;;;14.26;100.00;100841.75;5040583;28;20055;-72
2021/09/03 01:59:46;;;;;;;11.02;8.40;;;;;;;14.22;100.00;100840.34;5026625;28;20052;-72
2021/09/03 02:02:30;;;;;;;11.43;8.43;;;;;;;14.14;100.00;100843.78;5039087;28;20102;-71
2021/09/03 02:05:14;;;;;;;11.18;8.57;;;;;;;14.09;100.00;100851.41;5026222;28;20067;-71
2021/09/03 02:07:57;;;;;;;14.68;9.35;;;;;;;14.06;100.00;100842.84;5042280;28;20110;-71
2021/09/03 02:10:41;;;;;;;13.15;9.90;;;;;;;13.98;100.00;100838.22;5040228;28;20139;-69
2021/09/03 02:13:25;;;;;;;15.07;9.10;;;;;;;13.96;100.00;100842.09;5055230;28;20136;-72
2021/09/03 02:16:09;;;;;;;11.95;8.82;;;;;;;13.95;100.00;100841.22;5039855;28;20132;-72
2021/09/03 02:18:53;;;;;;;16.40;9.40;;;;;;;13.93;100.00;100839.69;5054942;28;20423;-71
2021/09/03 02:21:37;;;;;;;12.18;8.82;;;;;;;13.90;100.00;100831.97;5040151;28;20056;-72
2021/09/03 02:24:21;;;;;;;15.13;9.50;;;;;;;13.85;100.00;100831.56;5055371;28;20052;-72
2021/09/03 02:27:05;;;;;;;10.82;9.05;;;;;;;13.80;100.00;100831.19;5025935;28;20048;-71
2021/09/03 02:29:49;;;;;;;11.52;9.07;;;;;;;13.75;100.00;100837.00;5039592;28;20127;-72
2021/09/03 02:32:33;;;;;;;13.75;9.35;;;;;;;13.72;100.00;100831.94;5038951;28;20063;-72
2021/09/03 02:35:17;;;;;;;12.05;9.00;;;;;;;13.70;100.00;100838.44;5038577;28;20067;-71
2021/09/03 02:38:01;;;;;;;14.00;9.63;;;;;;;13.70;100.00;100833.06;5053873;28;20133;-72
2021/09/03 02:40:45;;;;;;;14.23;9.90;;;;;;;13.73;100.00;100833.63;5053724;28;20129;-71
2021/09/03 02:43:29;;;;;;;14.27;9.52;;;;;;;13.70;100.00;100833.06;5038705;28;20056;-71
2021/09/03 02:46:13;;;;;;;13.63;9.10;;;;;;;13.70;100.00;100830.41;5024675;28;20546;-72
2021/09/03 02:48:57;;;;;;;12.52;9.57;;;;;;;13.71;100.00;100832.06;5024578;28;20514;-70
2021/09/03 02:51:41;;;;;;;15.25;10.45;;;;;;;13.70;100.00;100838.44;5053380;28;20123;-71
2021/09/03 02:54:25;;;;;;;17.23;9.82;;;;;;;13.69;100.00;100839.44;5024596;28;20048;-71
2021/09/03 02:57:09;;;;;;;15.10;10.10;;;;;;;13.68;100.00;100841.25;5038432;28;20057;-71
2021/09/03 02:59:53;;;;;;;14.80;10.18;;;;;;;13.67;100.00;100844.09;5038473;28;20051;-72
2021/09/03 03:02:37;;;;;;;12.57;9.55;;;;;;;13.64;100.00;100839.03;5038113;28;20511;-71
2021/09/03 03:05:21;;;;;;;13.77;9.52;;;;;;;13.60;100.00;100838.50;5053208;28;20107;-71
2021/09/03 03:08:05;;;;;;;16.30;9.27;;;;;;;13.57;100.00;100828.06;5038074;28;20411;-71
2021/09/03 03:10:49;;;;;;;12.38;9.35;;;;;;;13.55;100.00;100829.22;5024262;28;20059;-71
2021/09/03 03:13:33;;;;;;;12.27;9.20;;;;;;;13.51;100.00;100817.97;5052860;28;20556;-69
2021/09/03 03:16:17;;;;;;;12.95;9.35;;;;;;;13.48;100.00;100825.44;5024154;28;20044;-72
2021/09/03 03:19:01;;;;;;;14.73;9.73;;;;;;;13.48;100.00;100825.44;5038202;28;20545;-71
2021/09/03 03:21:45;;;;;;;13.95;9.43;;;;;;;13.48;100.00;100833.50;5038052;28;20574;-71
2021/09/03 03:24:29;;;;;;;11.27;8.95;;;;;;;13.46;100.00;100824.75;5023965;28;20059;-72
2021/09/03 03:27:13;;;;;;;14.30;9.75;;;;;;;13.47;100.00;100827.28;5038309;28;20091;-71
2021/09/03 03:29:57;;;;;;;;;;;;;;;13.45;100.00;100823.91;5053514;28;20514;-70
2021/09/03 03:32:41;;;;;;;17.93;9.27;;;;;;;13.45;100.00;100833.78;4976193;28;1391639;-71
2021/09/03 03:35:25;;;;;;;12.82;9.25;;;;;;;13.44;100.00;100821.38;5024522;28;20132;-72
2021/09/03 03:38:10;;;;;;;14.40;9.40;;;;;;;13.43;100.00;100819.69;5053750;28;20124;-72
2021/09/03 03:40:54;;;;;;;12.63;9.63;;;;;;;13.44;100.00;100821.38;5024376;28;20071;-71
2021/09/03 03:43:38;;;;;;;16.00;9.55;;;;;;;13.42;100.00;100818.00;5053587;28;20052;-71
2021/09/03 03:46:22;;;;;;;11.13;9.07;;;;;;;13.40;100.00;100820.00;5038540;28;20048;-72
2021/09/03 03:49:05;;;;;;;11.07;8.50;;;;;;;13.39;100.00;100815.63;5024776;28;20106;-71
2021/09/03 03:51:49;;;;;;;15.85;9.13;;;;;;;13.36;100.00;100821.28;5038268;28;20079;-69
2021/09/03 03:54:33;;;;;;;11.73;9.35;;;;;;;13.31;100.00;100821.75;5038368;28;20108;-71
2021/09/03 03:57:18;;;;;;;13.90;9.32;;;;;;;13.30;100.00;100819.19;5038444;28;20047;-71
2021/09/03 04:00:03;;;;;;;13.15;9.13;;;;;;;13.26;100.00;100812.47;5038270;28;20051;-71
2021/09/03 04:02:47;;;;;;;13.93;9.40;;;;;;;13.22;100.00;100806.56;5037967;28;20048;-71
2021/09/03 04:05:31;;;;;;;12.95;9.07;;;;;;;13.19;100.00;100806.00;5053277;28;20129;-71
2021/09/03 04:08:15;;;;;;;15.13;10.10;;;;;;;13.15;100.00;100801.94;5024557;28;20406;-71
2021/09/03 04:10:59;;;;;;;12.50;9.40;;;;;;;13.09;100.00;100802.53;5024001;28;20127;-72
2021/09/03 04:13:43;;;;;;;11.68;8.93;;;;;;;13.02;100.00;100804.09;5038440;28;20529;-70
2021/09/03 04:16:27;;;;;;;16.27;9.27;;;;;;;12.93;100.00;100803.16;5038314;28;20070;-71
2021/09/03 04:19:11;;;;;;;13.88;10.10;;;;;;;12.85;100.00;100813.69;5038194;28;20047;-71
2021/09/03 04:21:55;;;;;;;14.48;10.35;;;;;;;12.80;100.00;100815.13;5037987;28;20123;-72
2021/09/03 04:24:39;;;;;;;13.68;10.20;;;;;;;12.80;100.00;100814.31;5038039;28;20148;-71
2021/09/03 04:27:22;;;;;;;14.38;9.68;;;;;;;12.87;100.00;100810.88;5028276;28;20044;-72
2021/09/03 04:30:08;;;;;;;13.88;10.20;;;;;;;12.93;100.00;100815.66;5042157;28;20155;-72
2021/09/03 04:32:52;;;;;;;13.88;9.45;;;;;;;12.93;100.00;100819.22;5041719;28;20056;-72
2021/09/03 04:35:36;;;;;;;13.90;9.40;;;;;;;12.92;100.00;100816.63;5041808;28;20419;-71
2021/09/03 04:38:22;;;;;;;17.02;10.70;;;;;;;12.91;100.00;100817.63;5041815;28;20047;-71
2021/09/03 04:41:05;;;;;;;13.60;9.40;;;;;;;12.93;100.00;100821.88;5056738;28;20477;-71
2021/09/03 04:43:49;;;;;;;17.50;9.93;;;;;;;12.93;100.00;100832.59;5041846;28;20415;-71
2021/09/03 04:46:33;;;;;;;13.40;10.38;;;;;;;12.93;100.00;100834.41;5056771;28;20036;-70
2021/09/03 04:49:17;;;;;;;15.50;9.60;;;;;;;12.92;100.00;100833.53;5027577;28;20048;-72
2021/09/03 04:52:01;;;;;;;18.02;10.25;;;;;;;12.90;100.00;100837.34;5056784;28;20098;-70
2021/09/03 04:54:45;;;;;;;15.35;10.18;;;;;;;12.92;100.00;100835.38;5027852;28;20114;-71
2021/09/03 04:57:29;;;;;;;14.50;9.52;;;;;;;12.93;100.00;100842.44;5041701;28;20094;-71
2021/09/03 05:00:16;;;;;;;13.05;9.05;;;;;;;12.95;100.00;100835.13;5041339;28;20083;-71
2021/09/03 05:03:00;;;;;;;15.07;10.00;;;;;;;12.92;100.00;100840.72;5056504;28;20080;-70
2021/09/03 05:05:44;;;;;;;15.93;10.52;;;;;;;12.92;100.00;100838.91;5027449;28;20059;-71
2021/09/03 05:08:28;;;;;;;13.90;9.82;;;;;;;12.95;100.00;100843.16;5027488;28;20052;-71
2021/09/03 05:11:12;;;;;;;15.27;8.98;;;;;;;12.96;100.00;100839.50;5027015;28;20419;-71
2021/09/03 05:13:56;;;;;;;15.50;9.02;;;;;;;13.01;100.00;100834.53;5041405;28;20415;-72
2021/09/03 05:16:40;;;;;;;14.65;10.18;;;;;;;13.02;100.00;100836.22;5041336;28;20519;-71
2021/09/03 05:19:24;;;;;;;13.45;9.63;;;;;;;13.08;100.00;100824.94;5041258;28;20139;-71
2021/09/03 05:22:08;;;;;;;14.63;10.45;;;;;;;13.09;100.00;100826.63;5041138;28;20415;-71
2021/09/03 05:24:52;;;;;;;13.65;9.73;;;;;;;13.18;100.00;100826.59;5056178;28;20067;-71
2021/09/03 05:27:36;;;;;;;13.35;9.90;;;;;;;13.17;100.00;100835.59;5041002;28;20129;-71
2021/09/03 05:30:20;;;;;;;15.00;10.35;;;;;;;13.24;100.00;100830.53;5041066;28;20410;-71
2021/09/03 05:33:04;;;;;;;16.77;9.32;;;;;;;13.26;100.00;100832.03;5040964;28;20415;-71
2021/09/03 05:35:48;;;;;;;16.27;10.63;;;;;;;13.30;100.00;100833.44;5040830;28;20521;-71
2021/09/03 05:38:32;;;;;;;15.02;9.93;;;;;;;13.40;100.00;100836.06;5040947;28;20414;-71
2021/09/03 05:41:16;;;;;;;12.30;9.60;;;;;;;13.49;100.00;100840.53;5040786;28;20103;-71
2021/09/03 05:44:00;;;;;;;14.40;9.57;;;;;;;13.55;100.00;100843.44;5026703;28;20506;-71
2021/09/03 05:46:44;;;;;;;14.57;9.45;;;;;;;13.61;100.00;100839.34;5026459;28;20048;-71
2021/09/03 05:49:28;;;;;;;13.70;9.38;;;;;;;13.70;100.00;100849.16;5040779;28;20106;-71
2021/09/03 05:52:12;;;;;;;16.20;10.15;;;;;;;13.76;100.00;100840.53;5040329;28;20187;-72
2021/09/03 05:54:56;;;;;;;15.43;10.07;;;;;;;13.86;100.00;100844.00;5040508;28;20047;-72
2021/09/03 05:57:39;;;;;;;12.23;9.20;;;;;;;13.89;100.00;100846.34;5040546;28;20431;-71
2021/09/03 06:00:24;;;;;;;14.88;9.55;;;;;;;13.92;100.00;100851.41;5040397;28;20074;-70
2021/09/03 06:03:08;;;;;;;14.85;9.63;;;;;;;14.07;100.00;100856.09;5026620;28;20152;-71
2021/09/03 06:05:52;;;;;;;13.50;8.85;;;;;;;14.11;100.00;100854.81;5040277;28;20122;-72
2021/09/03 06:08:36;;;;;;;14.38;9.73;;;;;;;14.18;100.00;100845.16;5040376;28;20053;-71
2021/09/03 06:11:24;;;;;;;11.98;9.15;;;;;;;14.24;100.00;100852.63;5026191;28;20076;-71
2021/09/03 06:14:08;;;;;;;14.25;8.57;;;;;;;14.35;100.00;100852.38;5040695;28;20490;-71
2021/09/03 06:16:52;;;;;;;13.20;9.43;;;;;;;14.43;100.00;100851.59;5040195;28;20048;-71
2021/09/03 06:19:35;;;;;;;14.38;9.27;;;;;;;14.52;100.00;100853.34;5055159;28;20095;-72
2021/09/03 06:22:19;;;;;;;13.55;9.93;;;;;;;14.58;100.00;100852.75;5040034;28;20068;-71
2021/09/03 06:25:05;;;;;;;13.68;9.55;;;;;;;14.62;100.00;100859.47;5025953;28;20067;-71
2021/09/03 06:27:49;;;;;;;13.95;9.18;;;;;;;14.70;100.00;100851.50;5025988;28;20514;-71
2021/09/03 06:30:32;;;;;;;15.23;9.50;;;;;;;14.79;100.00;100850.56;5039656;28;20067;-71
2021/09/03 06:33:17;;;;;;;17.15;10.00;;;;;;;14.86;100.00;100849.75;5040183;28;20133;-71
2021/09/03 06:36:01;;;;;;;16.17;9.07;;;;;;;14.97;100.00;100852.19;5025869;28;20048;-72
2021/09/03 06:38:44;;;;;;;11.35;8.05;;;;;;;15.05;100.00;100841.50;5025723;28;20195;-71
2021/09/03 06:41:28;;;;;;;15.05;9.85;;;;;;;15.11;100.00;100843.53;5054496;28;20071;-71
2021/09/03 06:44:12;;;;;;;17.98;10.55;;;;;;;15.18;100.00;100851.78;5054667;28;20179;-72
2021/09/03 06:46:56;;;;;;;12.20;9.48;;;;;;;15.27;100.00;100840.94;5025688;28;20186;-71
2021/09/03 06:49:41;;;;;;;16.35;9.27;;;;;;;15.39;100.00;100849.63;5024910;28;20055;-72
2021/09/03 06:52:30;;;;;;;14.13;9.63;;;;;;;15.46;100.00;100837.19;5039251;28;20466;-70
2021/09/03 06:55:15;;;;;;;14.48;8.80;;;;;;;15.54;100.00;100838.09;5054592;28;20044;-72
2021/09/03 06:57:59;;;;;;;16.27;9.15;;;;;;;15.63;100.00;100840.63;5039394;28;20099;-72
2021/09/03 07:00:43;;;;;;;18.75;9.02;;;;;;;15.71;100.00;100824.53;5054108;28;20048;-70
2021/09/03 07:03:27;;;;;;;13.48;9.05;;;;;;;15.82;100.00;100832.28;5039042;28;20051;-72
2021/09/03 07:06:11;;;;;;;14.57;9.18;;;;;;;15.90;100.00;100834.16;5024942;28;20048;-72
2021/09/03 07:08:56;;;;;;;16.67;8.90;;;;;;;15.99;100.00;100834.00;5025463;28;20052;-71
2021/09/03 07:11:40;;;;;;;13.10;8.60;;;;;;;16.11;100.00;100838.06;5039058;28;20099;-72
2021/09/03 07:14:24;;;;;;;11.52;9.10;;;;;;;16.22;100.00;100834.22;5025102;28;20043;-72
2021/09/03 07:17:08;;;;;;;11.95;8.63;;;;;;;16.31;100.00;100833.22;5054260;28;20052;-72
2021/09/03 07:19:52;;;;;;;11.82;8.05;;;;;;;16.43;100.00;100831.91;5038927;28;20063;-71
2021/09/03 07:22:36;;;;;;;11.40;8.85;;;;;;;16.51;100.00;100839.97;5038924;28;20102;-72
2021/09/03 07:25:20;;;;;;;10.88;8.48;;;;;;;16.59;100.00;100838.13;5053815;28;20114;-72
2021/09/03 07:28:04;;;;;;;12.40;8.65;;;;;;;16.65;100.00;100842.84;5038541;28;20052;-69
2021/09/03 07:30:48;;;;;;;12.95;8.60;;;;;;;16.76;99.54;100842.50;5053656;28;20094;-72
2021/09/03 07:33:32;;;;;;;12.68;8.65;;;;;;;16.85;98.96;100852.25;5038594;28;20137;-71
2021/09/03 07:36:16;;;;;;;10.75;8.15;;;;;;;16.94;99.58;100842.28;5024664;28;20514;-72
2021/09/03 07:39:01;;;;;;;12.50;8.52;;;;;;;17.02;97.48;100840.44;5038737;28;20051;-72
2021/09/03 07:41:45;;;;;;;11.90;8.70;;;;;;;17.08;95.87;100847.00;5038183;28;20100;-71
2021/09/03 07:44:30;;;;;;;13.82;7.93;;;;;;;17.14;94.75;100849.84;5024590;28;20128;-71
2021/09/03 07:47:14;;;;;;;11.73;7.80;;;;;;;17.22;94.74;100841.75;5038534;28;20571;-72
2021/09/03 07:49:57;;;;;;;12.25;7.90;;;;;;;17.31;93.84;100840.69;5038165;28;20511;-72
2021/09/03 07:52:41;;;;;;;16.17;8.43;;;;;;;17.43;93.44;100841.19;5038116;28;20064;-72
2021/09/03 07:55:25;;;;;;;11.15;8.25;;;;;;;17.43;93.23;100843.88;5053502;28;20106;-72
2021/09/03 07:58:09;;;;;;;14.80;8.63;;;;;;;17.53;92.47;100839.97;5024484;28;20083;-71
2021/09/03 08:00:53;;;;;;;12.43;8.45;;;;;;;17.61;92.72;100831.81;5038217;28;20048;-72
2021/09/03 08:03:37;;;;;;;11.65;8.25;;;;;;;17.69;91.98;100830.97;5024350;28;20091;-71
2021/09/03 08:06:21;;;;;;;12.60;7.80;;;;;;;17.75;93.01;100833.81;5024001;28;20472;-72
2021/09/03 08:09:05;;;;;;;14.05;8.50;;;;;;;17.80;91.18;100826.00;5055500;23;20056;-69
2021/09/03 08:11:49;;;;;;;14.00;8.25;;;;;;;17.91;89.45;100833.69;5053081;28;20052;-69
2021/09/03 08:14:35;;;;;;;15.70;8.50;;;;;;;17.92;89.94;100829.97;5038227;28;20087;-69
2021/09/03 08:17:19;;;;;;;10.95;7.70;;;;;;;18.02;90.58;100824.38;5038306;28;20091;-69
2021/09/03 08:20:04;;;;;;;14.23;8.23;;;;;;;18.11;89.69;100826.81;5053626;28;20426;-69
2021/09/03 08:22:50;;;;;;;10.80;8.25;;;;;;;18.18;88.94;100825.09;5073251;28;20113;-67
2021/09/03 08:25:34;;;;;;;9.75;7.40;;;;;;;18.31;88.35;100830.75;5073130;28;20109;-68
2021/09/03 08:28:18;;;;;;;10.48;7.93;;;;;;;18.40;88.11;100818.88;5057787;28;20098;-68
2021/09/03 08:31:02;;;;;;;12.40;8.50;;;;;;;18.54;88.59;100826.19;5072802;28;20517;-69
2021/09/03 08:33:46;;;;;;;10.55;7.38;;;;;;;18.64;85.68;100826.78;5073470;28;20552;-68
2021/09/03 08:36:30;;;;;;;12.00;7.13;;;;;;;18.77;85.32;100817.03;5057760;28;20047;-68
2021/09/03 08:39:13;;;;;;;9.95;7.45;;;;;;;18.94;84.68;100820.41;5072849;28;20051;-68
2021/09/03 08:41:57;;;;;;;10.25;7.10;;;;;;;19.08;82.83;100814.19;5072758;28;20101;-68
2021/09/03 08:44:41;;;;;;;11.68;7.05;;;;;;;19.20;83.16;100816.25;5073125;28;20048;-68
2021/09/03 08:47:25;;;;;;;9.75;7.43;;;;;;;19.33;84.76;100818.31;5072963;28;20101;-69
2021/09/03 08:50:11;;;;;;;10.70;7.78;;;;;;;19.46;80.47;100819.34;5057420;28;20067;-69
2021/09/03 08:52:56;;;;;;;11.02;7.28;;;;;;;19.62;78.62;100804.78;5057491;28;20098;-68
2021/09/03 08:55:43;;;;;;;9.27;6.50;;;;;;;19.78;79.10;100812.69;5043408;28;20570;-68
2021/09/03 08:58:27;;;;;;;11.20;8.43;;;;;;;19.92;77.40;100809.09;5057618;28;20051;-69
2021/09/03 09:01:13;;;;;;;11.25;7.22;;;;;;;20.08;76.21;100809.72;5043305;28;20128;-68
2021/09/03 09:03:56;;;;;;;11.52;7.93;;;;;;;20.25;75.63;100810.31;5057313;28;20043;-69
2021/09/03 09:07:01;;;;;;;9.00;6.47;;;;;;;20.41;74.11;100812.75;5057462;28;20094;-69
2021/09/03 09:09:47;;;;;;;9.85;7.13;;;;;;;20.59;74.64;100810.41;5072423;28;20044;-69
2021/09/03 09:12:33;;;;;;;9.70;6.88;;;;;;;20.77;72.45;100808.91;5059913;28;20055;-68
2021/09/03 09:15:19;;;;;;;8.88;6.35;;;;;;;20.89;71.34;100817.34;5076192;28;20079;-68
2021/09/03 09:18:03;;;;;;;9.25;6.78;;;;;;;21.13;70.34;100816.91;5076366;28;20043;-67
2021/09/03 09:20:47;;;;;;;10.88;6.28;;;;;;;21.35;70.59;100812.03;5060949;28;20083;-69
2021/09/03 09:23:52;;;;;;;9.48;6.22;;;;;;;21.60;65.74;100815.91;5061128;28;20071;-68
2021/09/03 09:26:43;;;;;;;9.32;6.60;;;;;;;21.82;66.40;100814.81;5076207;28;20461;-68
2021/09/03 09:29:35;;;;;;;8.13;6.60;;;;;;;22.11;64.49;100819.88;5060776;28;20047;-68
2021/09/03 09:32:26;;;;;;;8.25;6.65;;;;;;;22.32;63.52;100806.13;5061021;28;20047;-69
2021/09/03 09:35:10;;;;;;;10.98;7.10;;;;;;;22.56;62.33;100811.00;5060618;28;20413;-68
2021/09/03 09:37:54;;;;;;;;;;;;;;;22.89;60.89;100809.13;5076206;28;20127;-69
2021/09/03 09:40:55;;;;;;;15.13;7.60;;;;;;;23.38;59.03;100798.59;5061125;28;19918;-69
2021/09/03 09:43:41;;;;;;;9.38;7.03;;;;;;;24.04;57.80;100799.19;5075642;28;20135;-69
2021/09/03 09:46:27;;;;;;;8.52;6.63;;;;;;;24.69;53.84;100788.69;5060412;28;20048;-68
2021/09/03 09:49:12;;;;;;;10.93;7.00;;;;;;;25.51;51.56;100791.84;5075647;28;20097;-68
2021/09/03 09:51:57;;;;;;;9.18;6.85;;;;;;;26.92;47.50;100794.59;5076026;28;20044;-69
2021/09/03 09:54:41;;;;;;;7.60;5.90;;;;;;;28.98;42.91;100787.59;5046312;28;20051;-69
2021/09/03 09:57:27;;;;;;;10.10;6.72;;;;;;;31.20;36.81;100784.09;5075375;28;20094;-69
2021/09/03 10:00:12;;;;;;;11.70;6.07;;;;;;;33.74;32.78;100783.63;5060459;28;20047;-69
2021/09/03 10:02:56;;;;;;;9.93;6.47;;;;;;;34.23;31.70;100773.44;5060632;28;20575;-69
2021/09/03 10:05:40;;;;;;;8.32;6.57;;;;;;;36.16;28.58;100778.38;5060265;28;20051;-69
2021/09/03 10:08:24;;;;;;;8.65;6.82;;;;;;;37.76;27.19;100774.41;5060095;28;20048;-70
2021/09/03 10:11:09;;;;;;;12.02;6.75;;;;;;;38.28;25.56;100759.88;5060335;28;20047;-69
2021/09/03 10:13:54;;;;;;;7.53;6.03;;;;;;;39.28;24.24;100770.44;5075310;28;20127;-68
2021/09/03 10:16:37;;;;;;;8.02;6.53;;;;;;;39.86;23.79;100769.84;5060204;28;20063;-69
2021/09/03 10:19:26;;;;;;;7.63;6.40;;;;;;;40.58;22.72;100768.13;5059757;28;20055;-68
2021/09/03 10:22:15;;;;;;;10.30;6.45;;;;;;;40.89;21.99;100768.75;5075248;28;20048;-69
2021/09/03 10:25:07;;;;;;;6.70;5.97;;;;;;;40.68;21.79;100750.19;5059922;28;20156;-70
2021/09/03 10:28:06;;;;;;;7.60;6.10;;;;;;;40.88;21.60;100758.69;5059594;28;20059;-69
2021/09/03 10:31:06;;;;;;;6.82;6.15;;;;;;;41.37;20.82;100752.50;5059808;28;20122;-69
2021/09/03 10:33:50;;;;;;;7.97;6.22;;;;;;;41.72;20.66;100751.19;5059502;28;20580;-69
2021/09/03 10:36:54;;;;;;;8.13;6.28;;;;;;;42.17;20.48;100755.00;5059529;28;20039;-69
2021/09/03 10:39:44;;;;;;;10.02;6.10;;;;;;;42.91;19.44;100755.84;5059405;28;20102;-69
2021/09/03 10:42:35;;;;;;;6.97;6.00;;;;;;;42.67;19.77;100749.31;5074751;28;20060;-69
2021/09/03 10:45:26;;;;;;;7.22;6.50;;;;;;;42.93;19.70;100748.72;5074232;28;20055;-69
2021/09/03 10:48:12;;;;;;;9.60;6.15;;;;;;;43.73;19.03;100744.25;5059594;28;20067;-69
2021/09/03 10:50:56;;;;;;;7.75;6.93;;;;;;;43.63;18.82;100750.31;5074583;28;20577;-69
2021/09/03 10:53:47;;;;;;;7.47;6.78;;;;;;;44.12;18.11;100749.13;5074458;28;20113;-69
2021/09/03 10:56:34;;;;;;;7.35;5.85;;;;;;;44.36;17.93;100744.22;5059172;28;20083;-69
2021/09/03 10:59:18;;;;;;;8.20;6.72;;;;;;;44.50;17.57;100741.84;5059376;28;20055;-67
2021/09/03 11:02:02;;;;;;;7.20;6.50;;;;;;;44.38;18.02;100732.59;5045023;28;20438;-69
2021/09/03 11:04:46;;;;;;;9.13;6.65;;;;;;;43.82;17.88;100742.13;5059228;28;20047;-69
2021/09/03 11:07:41;;;;;;;7.45;6.60;;;;;;;43.95;17.64;100729.69;5058846;28;20174;-69
2021/09/03 11:10:25;;;;;;;7.70;6.55;;;;;;;44.57;17.56;100729.97;5058698;28;20517;-69
2021/09/03 11:13:10;;;;;;;7.28;6.57;;;;;;;45.12;17.19;100724.25;5058777;28;20533;-69
2021/09/03 11:15:54;;;;;;;9.48;6.72;;;;;;;45.10;17.69;100727.47;5073790;28;20043;-69
2021/09/03 11:18:38;;;;;;;9.13;6.50;;;;;;;45.59;16.43;100714.63;5058761;28;20103;-69
2021/09/03 11:21:49;;;;;;;9.98;6.50;;;;;;;45.82;16.15;100715.59;5073820;28;20110;-69
2021/09/03 11:24:39;;;;;;;7.57;6.93;;;;;;;46.29;16.12;100703.00;5058407;28;20043;-68
2021/09/03 11:27:29;;;;;;;10.15;6.38;;;;;;;45.89;16.25;100703.66;5058557;28;20051;-69
2021/09/03 11:30:14;;;;;;;7.22;6.60;;;;;;;45.87;16.48;100700.41;5073812;28;20105;-69
2021/09/03 11:32:58;;;;;;;8.38;7.57;;;;;;;45.54;16.71;100700.84;5058814;28;20125;-70
2021/09/03 11:35:42;;;;;;;7.65;6.70;;;;;;;45.61;16.89;100698.22;5057899;28;20101;-70
2021/09/03 11:38:26;;;;;;;7.07;6.38;;;;;;;45.53;16.42;100695.53;5058393;28;20106;-69
2021/09/03 11:41:10;;;;;;;7.78;6.93;;;;;;;46.07;15.66;100682.34;5058497;28;20063;-69
2021/09/03 11:44:06;;;;;;;7.18;6.55;;;;;;;45.85;16.04;100681.03;5058582;28;20419;-70
2021/09/03 11:46:50;;;;;;;11.18;6.75;;;;;;;45.78;16.30;100691.34;5073624;28;20039;-70
2021/09/03 11:49:35;;;;;;;7.32;6.28;;;;;;;46.23;16.53;100690.34;5058098;28;20502;-70
2021/09/03 11:52:27;;;;;;;10.10;7.00;;;;;;;46.44;15.74;100690.78;5044208;28;20150;-70
2021/09/03 11:55:17;;;;;;;9.18;7.07;;;;;;;45.85;16.43;100694.31;5057974;28;20050;-69
2021/09/03 11:58:06;;;;;;;7.55;6.70;;;;;;;46.62;16.06;100693.97;5073427;28;20410;-69
2021/09/03 12:00:52;;;;;;;7.03;6.35;;;;;;;45.62;16.26;100680.13;5058064;28;20109;-69
2021/09/03 12:03:44;;;;;;;6.55;6.00;;;;;;;45.88;15.39;100679.50;5058295;28;20051;-69
2021/09/03 12:06:28;;;;;;;8.37;6.57;;;;;;;45.92;15.84;100686.03;5058401;28;20129;-69
2021/09/03 12:09:34;;;;;;;7.03;6.32;;;;;;;46.08;15.75;100681.16;5072860;28;20364;-69
2021/09/03 12:12:23;;;;;;;7.88;6.30;;;;;;;46.03;15.80;100681.44;5044065;28;20126;-69
2021/09/03 12:15:08;;;;;;;6.47;5.85;;;;;;;45.45;16.17;100679.69;5073260;28;20059;-68
2021/09/03 12:17:52;;;;;;;7.05;6.28;;;;;;;46.01;15.59;100678.19;5073033;28;20078;-69
2021/09/03 12:20:36;;;;;;;6.60;6.00;;;;;;;46.26;15.40;100675.56;5058094;28;20145;-69
2021/09/03 12:23:19;;;;;;;6.53;5.95;;;;;;;46.24;15.52;100666.59;5057720;28;20517;-68
2021/09/03 12:26:11;;;;;;;6.95;6.32;;;;;;;45.85;15.65;100663.31;5057951;28;20063;-69
2021/09/03 12:28:55;;;;;;;7.13;5.82;;;;;;;46.07;15.78;100662.63;5072839;28;20047;-69
2021/09/03 12:31:54;;;;;;;6.88;6.28;;;;;;;45.32;16.05;100652.81;5073134;28;20098;-68
2021/09/03 12:34:39;;;;;;;7.95;6.20;;;;;;;45.12;16.31;100651.06;5072928;28;20086;-69
2021/09/03 12:37:24;;;;;;;6.55;5.95;;;;;;;44.82;17.06;100649.91;5058156;28;20047;-69